Etusivu
METAR-TAF:

METAR-TAF

Lentoasemat :

Ulan-Ude, Venäjä

Leveyspiiri: 51-50N, Pituuspiiri: 107-36E, korkeus merenpinnasta: 510 m

Tämänhetkinen sää

Tämä raportti tehtiin 24 minuuttia sitten, kello 18.00 UTC
tyyntä
Lämpötila -17°C
Kosteus 65%
Ilmanpaine 1010 hPa
Näkyvyys 10 km tai enemmän

METAR: UIUU 131800Z 00000MPS 9999 NSC M17/M22 Q1010 R26/60D NOSIG RMK QFE714/0952

Aika: 02:24 (18:24 UTC)

Sääennuste

Tämä raportti tehtiin 1 tunti ja 24 minuuttia sitten, kello 17.00 UTC
Ennuste voimassa 13. päivästä klo 18 UTC - 14. päivään klo 18 UTC
Tuuli 6 kn lännestä/luoteesta puuskistuen 16 kn:hen
Näkyvyys 10 km tai enemmän
Hajanaisia pilviä 3000 ft:n korkeudessa, Cumulonimbus.
Ajoittain
13. päivästä klo 21 UTC - 14. päivään klo 12 UTC
Tuuli 16 kn pohjoisen/luoteesta
Näkyvyys: 2900 m
Pilvistä 1100 ft:n korkeudessa, Cumulonimbus.
heikkoja lumikuuroja

TAF: UIUU 131700Z 1318/1418 30003G08MPS 9999 SCT030CB TEMPO 1321/1412 33008MPS 2900 -SHSN OVC011CB

Säähavainnot ja -ennusteet yli 4000 lentoasemalta (METAR- ja TAF-raportit).

Käytössä olevat sääasemat on merkitty karttaan keltaisilla ja punaisilla pisteillä.

Aseta hiiri pisteen päälle nähdäksesi sääaseman nimen.

Klikkaa sitten nähdäksesi säähavainnot ja -ennusteet.

Kartan vaihtaminen: klikkaa mustalla rastilla varustettuja vihreitä pisteitä, niin voit zoomata sisään; viivalla varustettua vihreää pistettä, niin voit zoomata ulos tai vihreitä nuolia, niin pääset viereisille kartoille.


METAR-TAF: